sensor_id;sensor_type;location;lat;lon;timestamp;P1;durP1;ratioP1;P2;durP2;ratioP2
24961;SDS011;12992;50.884;13.668;2022-10-16T00:02:17;3.35;;;3.05;;
24961;SDS011;12992;50.884;13.668;2022-10-16T00:04:43;5.78;;;3.17;;
24961;SDS011;12992;50.884;13.668;2022-10-16T00:07:08;4.45;;;3.33;;
24961;SDS011;12992;50.884;13.668;2022-10-16T00:09:33;5.05;;;3.53;;
24961;SDS011;12992;50.884;13.668;2022-10-16T00:11:59;3.42;;;3.13;;
24961;SDS011;12992;50.884;13.668;2022-10-16T00:14:24;4.00;;;3.60;;
24961;SDS011;12992;50.884;13.668;2022-10-16T00:16:49;6.65;;;4.88;;
24961;SDS011;12992;50.884;13.668;2022-10-16T00:19:15;5.35;;;3.42;;
24961;SDS011;12992;50.884;13.668;2022-10-16T00:21:40;3.90;;;3.42;;
24961;SDS011;12992;50.884;13.668;2022-10-16T00:24:08;4.10;;;3.45;;
24961;SDS011;12992;50.884;13.668;2022-10-16T00:26:34;4.80;;;4.38;;
24961;SDS011;12992;50.884;13.668;2022-10-16T00:29:00;5.80;;;4.25;;
24961;SDS011;12992;50.884;13.668;2022-10-16T00:31:26;4.47;;;3.85;;
24961;SDS011;12992;50.884;13.668;2022-10-16T00:33:52;5.32;;;4.25;;
24961;SDS011;12992;50.884;13.668;2022-10-16T00:36:18;6.65;;;4.78;;
24961;SDS011;12992;50.884;13.668;2022-10-16T00:38:45;5.30;;;4.80;;
24961;SDS011;12992;50.884;13.668;2022-10-16T00:41:13;5.50;;;4.38;;
24961;SDS011;12992;50.884;13.668;2022-10-16T00:46:11;5.85;;;4.10;;
24961;SDS011;12992;50.884;13.668;2022-10-16T00:48:40;5.43;;;3.83;;
24961;SDS011;12992;50.884;13.668;2022-10-16T00:51:10;4.43;;;3.97;;
24961;SDS011;12992;50.884;13.668;2022-10-16T00:53:35;4.80;;;3.22;;
24961;SDS011;12992;50.884;13.668;2022-10-16T00:56:01;3.95;;;3.45;;
24961;SDS011;12992;50.884;13.668;2022-10-16T00:58:28;4.10;;;3.60;;
24961;SDS011;12992;50.884;13.668;2022-10-16T01:00:53;4.15;;;3.75;;
24961;SDS011;12992;50.884;13.668;2022-10-16T01:03:23;4.15;;;3.47;;
24961;SDS011;12992;50.884;13.668;2022-10-16T01:05:54;4.00;;;3.47;;
24961;SDS011;12992;50.884;13.668;2022-10-16T01:08:46;4.28;;;3.53;;
24961;SDS011;12992;50.884;13.668;2022-10-16T01:11:23;4.60;;;3.50;;
24961;SDS011;12992;50.884;13.668;2022-10-16T01:13:55;4.00;;;3.60;;
24961;SDS011;12992;50.884;13.668;2022-10-16T01:16:29;3.63;;;3.07;;
24961;SDS011;12992;50.884;13.668;2022-10-16T01:21:58;3.40;;;3.00;;
24961;SDS011;12992;50.884;13.668;2022-10-16T01:24:38;3.47;;;3.17;;
24961;SDS011;12992;50.884;13.668;2022-10-16T01:32:42;3.67;;;2.80;;
24961;SDS011;12992;50.884;13.668;2022-10-16T01:35:18;2.60;;;2.40;;
24961;SDS011;12992;50.884;13.668;2022-10-16T01:37:51;2.97;;;2.47;;
24961;SDS011;12992;50.884;13.668;2022-10-16T01:40:23;2.85;;;2.55;;
24961;SDS011;12992;50.884;13.668;2022-10-16T01:42:53;5.60;;;2.80;;
24961;SDS011;12992;50.884;13.668;2022-10-16T01:45:22;3.67;;;2.47;;
24961;SDS011;12992;50.884;13.668;2022-10-16T01:47:48;3.08;;;2.70;;
24961;SDS011;12992;50.884;13.668;2022-10-16T01:50:16;3.53;;;3.20;;
24961;SDS011;12992;50.884;13.668;2022-10-16T01:52:45;4.03;;;2.70;;
24961;SDS011;12992;50.884;13.668;2022-10-16T01:55:15;3.33;;;3.03;;
24961;SDS011;12992;50.884;13.668;2022-10-16T01:57:45;3.78;;;2.97;;
24961;SDS011;12992;50.884;13.668;2022-10-16T02:00:13;3.30;;;3.00;;
24961;SDS011;12992;50.884;13.668;2022-10-16T02:02:42;3.78;;;3.08;;
24961;SDS011;12992;50.884;13.668;2022-10-16T02:05:15;3.40;;;2.90;;
24961;SDS011;12992;50.884;13.668;2022-10-16T02:07:45;3.45;;;2.58;;
24961;SDS011;12992;50.884;13.668;2022-10-16T02:10:12;3.35;;;3.05;;
24961;SDS011;12992;50.884;13.668;2022-10-16T02:12:38;2.75;;;2.55;;
24961;SDS011;12992;50.884;13.668;2022-10-16T02:15:08;2.65;;;2.45;;
24961;SDS011;12992;50.884;13.668;2022-10-16T02:17:34;3.00;;;2.47;;
24961;SDS011;12992;50.884;13.668;2022-10-16T02:20:00;2.65;;;2.45;;
24961;SDS011;12992;50.884;13.668;2022-10-16T02:22:34;3.05;;;2.75;;
24961;SDS011;12992;50.884;13.668;2022-10-16T02:25:16;5.82;;;2.80;;
24961;SDS011;12992;50.884;13.668;2022-10-16T02:27:57;3.50;;;3.20;;
24961;SDS011;12992;50.884;13.668;2022-10-16T02:30:33;5.30;;;2.92;;
24961;SDS011;12992;50.884;13.668;2022-10-16T02:33:03;3.55;;;2.80;;
24961;SDS011;12992;50.884;13.668;2022-10-16T02:35:32;5.07;;;2.95;;
24961;SDS011;12992;50.884;13.668;2022-10-16T02:37:58;3.33;;;3.00;;
24961;SDS011;12992;50.884;13.668;2022-10-16T02:40:24;3.40;;;2.90;;
24961;SDS011;12992;50.884;13.668;2022-10-16T02:42:54;3.13;;;2.83;;
24961;SDS011;12992;50.884;13.668;2022-10-16T02:45:20;3.30;;;3.00;;
24961;SDS011;12992;50.884;13.668;2022-10-16T02:47:46;3.22;;;2.75;;
24961;SDS011;12992;50.884;13.668;2022-10-16T02:50:12;2.70;;;2.50;;
24961;SDS011;12992;50.884;13.668;2022-10-16T02:52:37;3.00;;;2.70;;
24961;SDS011;12992;50.884;13.668;2022-10-16T02:55:02;5.05;;;2.75;;
24961;SDS011;12992;50.884;13.668;2022-10-16T02:57:28;3.63;;;2.58;;
24961;SDS011;12992;50.884;13.668;2022-10-16T02:59:53;4.65;;;3.20;;
24961;SDS011;12992;50.884;13.668;2022-10-16T03:02:19;3.58;;;2.80;;
24961;SDS011;12992;50.884;13.668;2022-10-16T03:04:45;3.13;;;2.83;;
24961;SDS011;12992;50.884;13.668;2022-10-16T03:07:10;3.60;;;2.53;;
24961;SDS011;12992;50.884;13.668;2022-10-16T03:09:35;2.70;;;2.50;;
24961;SDS011;12992;50.884;13.668;2022-10-16T03:12:01;5.07;;;2.58;;
24961;SDS011;12992;50.884;13.668;2022-10-16T03:14:26;2.90;;;2.70;;
24961;SDS011;12992;50.884;13.668;2022-10-16T03:16:52;7.93;;;2.60;;
24961;SDS011;12992;50.884;13.668;2022-10-16T03:19:17;3.78;;;2.67;;
24961;SDS011;12992;50.884;13.668;2022-10-16T03:21:43;3.67;;;2.08;;
24961;SDS011;12992;50.884;13.668;2022-10-16T03:24:08;2.05;;;1.95;;
24961;SDS011;12992;50.884;13.668;2022-10-16T03:26:34;2.45;;;2.25;;
24961;SDS011;12992;50.884;13.668;2022-10-16T03:28:59;2.92;;;2.15;;
24961;SDS011;12992;50.884;13.668;2022-10-16T03:31:25;2.00;;;1.85;;
24961;SDS011;12992;50.884;13.668;2022-10-16T03:33:51;2.67;;;1.90;;
24961;SDS011;12992;50.884;13.668;2022-10-16T03:36:16;2.13;;;1.92;;
24961;SDS011;12992;50.884;13.668;2022-10-16T03:38:41;1.70;;;1.60;;
24961;SDS011;12992;50.884;13.668;2022-10-16T03:41:07;2.10;;;1.90;;
24961;SDS011;12992;50.884;13.668;2022-10-16T03:43:32;1.98;;;1.85;;
24961;SDS011;12992;50.884;13.668;2022-10-16T03:45:58;2.17;;;1.98;;
24961;SDS011;12992;50.884;13.668;2022-10-16T03:48:23;2.33;;;1.83;;
24961;SDS011;12992;50.884;13.668;2022-10-16T03:50:49;1.70;;;1.60;;
24961;SDS011;12992;50.884;13.668;2022-10-16T03:53:15;1.70;;;1.60;;
24961;SDS011;12992;50.884;13.668;2022-10-16T03:55:41;1.65;;;1.55;;
24961;SDS011;12992;50.884;13.668;2022-10-16T03:58:07;3.08;;;1.70;;
24961;SDS011;12992;50.884;13.668;2022-10-16T04:00:33;2.17;;;1.75;;
24961;SDS011;12992;50.884;13.668;2022-10-16T04:02:59;1.75;;;1.65;;
24961;SDS011;12992;50.884;13.668;2022-10-16T04:05:25;2.03;;;1.83;;
24961;SDS011;12992;50.884;13.668;2022-10-16T04:07:50;1.73;;;1.63;;
24961;SDS011;12992;50.884;13.668;2022-10-16T04:10:16;2.47;;;1.70;;
24961;SDS011;12992;50.884;13.668;2022-10-16T04:12:41;1.60;;;1.50;;
24961;SDS011;12992;50.884;13.668;2022-10-16T04:15:06;2.05;;;1.95;;
24961;SDS011;12992;50.884;13.668;2022-10-16T04:17:32;3.03;;;1.95;;
24961;SDS011;12992;50.884;13.668;2022-10-16T04:19:58;2.67;;;1.75;;
24961;SDS011;12992;50.884;13.668;2022-10-16T04:22:23;2.47;;;1.70;;
24961;SDS011;12992;50.884;13.668;2022-10-16T04:24:48;2.05;;;1.95;;
24961;SDS011;12992;50.884;13.668;2022-10-16T04:27:14;2.10;;;1.90;;
24961;SDS011;12992;50.884;13.668;2022-10-16T04:29:39;3.17;;;1.80;;
24961;SDS011;12992;50.884;13.668;2022-10-16T04:32:04;6.18;;;5.57;;
24961;SDS011;12992;50.884;13.668;2022-10-16T04:34:30;3.33;;;3.03;;
24961;SDS011;12992;50.884;13.668;2022-10-16T04:36:55;2.90;;;2.70;;
24961;SDS011;12992;50.884;13.668;2022-10-16T04:39:20;2.47;;;2.28;;
24961;SDS011;12992;50.884;13.668;2022-10-16T04:41:46;2.67;;;2.15;;
24961;SDS011;12992;50.884;13.668;2022-10-16T04:44:11;5.25;;;2.70;;
24961;SDS011;12992;50.884;13.668;2022-10-16T04:46:36;2.50;;;2.30;;
24961;SDS011;12992;50.884;13.668;2022-10-16T04:49:01;2.25;;;1.90;;
24961;SDS011;12992;50.884;13.668;2022-10-16T04:51:27;2.60;;;2.10;;
24961;SDS011;12992;50.884;13.668;2022-10-16T04:53:53;2.45;;;2.00;;
24961;SDS011;12992;50.884;13.668;2022-10-16T04:56:19;2.10;;;1.92;;
24961;SDS011;12992;50.884;13.668;2022-10-16T04:58:46;3.55;;;1.95;;
24961;SDS011;12992;50.884;13.668;2022-10-16T05:01:11;2.30;;;2.10;;
24961;SDS011;12992;50.884;13.668;2022-10-16T05:03:37;3.78;;;2.17;;
24961;SDS011;12992;50.884;13.668;2022-10-16T05:06:04;2.22;;;2.00;;
24961;SDS011;12992;50.884;13.668;2022-10-16T05:08:31;2.97;;;2.30;;
24961;SDS011;12992;50.884;13.668;2022-10-16T05:10:56;2.30;;;2.10;;
24961;SDS011;12992;50.884;13.668;2022-10-16T05:13:21;2.78;;;2.30;;
24961;SDS011;12992;50.884;13.668;2022-10-16T05:15:48;5.38;;;3.00;;
24961;SDS011;12992;50.884;13.668;2022-10-16T05:18:14;6.43;;;5.82;;
24961;SDS011;12992;50.884;13.668;2022-10-16T05:20:40;3.55;;;3.25;;
24961;SDS011;12992;50.884;13.668;2022-10-16T05:23:06;3.08;;;2.60;;
24961;SDS011;12992;50.884;13.668;2022-10-16T05:25:31;2.60;;;2.40;;
24961;SDS011;12992;50.884;13.668;2022-10-16T05:27:57;3.67;;;2.85;;
24961;SDS011;12992;50.884;13.668;2022-10-16T05:30:22;2.78;;;2.58;;
24961;SDS011;12992;50.884;13.668;2022-10-16T05:32:48;3.35;;;2.45;;
24961;SDS011;12992;50.884;13.668;2022-10-16T05:35:14;4.18;;;3.03;;
24961;SDS011;12992;50.884;13.668;2022-10-16T05:37:39;3.72;;;3.00;;
24961;SDS011;12992;50.884;13.668;2022-10-16T05:40:05;3.75;;;3.30;;
24961;SDS011;12992;50.884;13.668;2022-10-16T05:42:31;3.20;;;2.90;;
24961;SDS011;12992;50.884;13.668;2022-10-16T05:44:56;3.70;;;2.55;;
24961;SDS011;12992;50.884;13.668;2022-10-16T05:47:22;3.45;;;3.15;;
24961;SDS011;12992;50.884;13.668;2022-10-16T05:49:47;3.22;;;2.92;;
24961;SDS011;12992;50.884;13.668;2022-10-16T05:52:12;3.40;;;3.10;;
24961;SDS011;12992;50.884;13.668;2022-10-16T05:54:38;3.50;;;2.75;;
24961;SDS011;12992;50.884;13.668;2022-10-16T05:57:03;3.42;;;3.13;;
24961;SDS011;12992;50.884;13.668;2022-10-16T05:59:30;7.10;;;3.65;;
24961;SDS011;12992;50.884;13.668;2022-10-16T06:01:56;4.85;;;3.60;;
24961;SDS011;12992;50.884;13.668;2022-10-16T06:04:21;3.53;;;3.22;;
24961;SDS011;12992;50.884;13.668;2022-10-16T06:06:46;4.32;;;3.92;;
24961;SDS011;12992;50.884;13.668;2022-10-16T06:09:12;3.60;;;3.30;;
24961;SDS011;12992;50.884;13.668;2022-10-16T06:11:37;8.50;;;3.60;;
24961;SDS011;12992;50.884;13.668;2022-10-16T06:14:02;4.00;;;3.40;;
24961;SDS011;12992;50.884;13.668;2022-10-16T06:16:31;3.88;;;3.53;;
24961;SDS011;12992;50.884;13.668;2022-10-16T06:18:58;3.13;;;2.88;;
24961;SDS011;12992;50.884;13.668;2022-10-16T06:21:27;3.72;;;2.40;;
24961;SDS011;12992;50.884;13.668;2022-10-16T06:23:54;2.33;;;2.10;;
24961;SDS011;12992;50.884;13.668;2022-10-16T06:26:21;1.92;;;1.70;;
24961;SDS011;12992;50.884;13.668;2022-10-16T06:28:48;4.75;;;1.77;;
24961;SDS011;12992;50.884;13.668;2022-10-16T06:31:14;2.88;;;1.60;;
24961;SDS011;12992;50.884;13.668;2022-10-16T06:33:40;1.45;;;1.30;;
24961;SDS011;12992;50.884;13.668;2022-10-16T06:36:06;1.70;;;1.60;;
24961;SDS011;12992;50.884;13.668;2022-10-16T06:38:34;1.25;;;1.17;;
24961;SDS011;12992;50.884;13.668;2022-10-16T06:40:59;2.97;;;1.02;;
24961;SDS011;12992;50.884;13.668;2022-10-16T06:43:25;1.63;;;1.20;;
24961;SDS011;12992;50.884;13.668;2022-10-16T06:45:52;1.00;;;0.80;;
24961;SDS011;12992;50.884;13.668;2022-10-16T06:48:21;0.50;;;0.50;;
24961;SDS011;12992;50.884;13.668;2022-10-16T06:53:27;2.03;;;0.68;;
24961;SDS011;12992;50.884;13.668;2022-10-16T06:55:54;0.75;;;0.50;;
24961;SDS011;12992;50.884;13.668;2022-10-16T06:58:20;3.42;;;0.70;;
24961;SDS011;12992;50.884;13.668;2022-10-16T07:00:45;0.52;;;0.52;;
24961;SDS011;12992;50.884;13.668;2022-10-16T07:03:11;0.40;;;0.40;;
24961;SDS011;12992;50.884;13.668;2022-10-16T07:05:40;0.60;;;0.60;;
24961;SDS011;12992;50.884;13.668;2022-10-16T07:08:06;1.67;;;0.50;;
24961;SDS011;12992;50.884;13.668;2022-10-16T07:10:32;1.40;;;0.90;;
24961;SDS011;12992;50.884;13.668;2022-10-16T07:12:58;1.75;;;0.90;;
24961;SDS011;12992;50.884;13.668;2022-10-16T07:15:24;0.68;;;0.68;;
24961;SDS011;12992;50.884;13.668;2022-10-16T07:17:50;1.73;;;0.93;;
24961;SDS011;12992;50.884;13.668;2022-10-16T07:20:15;1.40;;;1.30;;
24961;SDS011;12992;50.884;13.668;2022-10-16T07:22:41;2.78;;;2.55;;
24961;SDS011;12992;50.884;13.668;2022-10-16T07:25:06;3.05;;;2.80;;
24961;SDS011;12992;50.884;13.668;2022-10-16T07:27:32;3.60;;;3.15;;
24961;SDS011;12992;50.884;13.668;2022-10-16T07:29:57;5.10;;;4.00;;
24961;SDS011;12992;50.884;13.668;2022-10-16T07:32:23;4.63;;;4.20;;
24961;SDS011;12992;50.884;13.668;2022-10-16T07:34:50;5.15;;;4.30;;
24961;SDS011;12992;50.884;13.668;2022-10-16T07:37:16;5.07;;;4.32;;
24961;SDS011;12992;50.884;13.668;2022-10-16T07:39:41;5.07;;;4.57;;
24961;SDS011;12992;50.884;13.668;2022-10-16T07:42:07;6.03;;;4.72;;
24961;SDS011;12992;50.884;13.668;2022-10-16T07:44:32;5.78;;;5.10;;
24961;SDS011;12992;50.884;13.668;2022-10-16T07:46:58;4.30;;;3.90;;
24961;SDS011;12992;50.884;13.668;2022-10-16T07:49:23;4.68;;;4.28;;
24961;SDS011;12992;50.884;13.668;2022-10-16T07:51:49;4.40;;;4.00;;
24961;SDS011;12992;50.884;13.668;2022-10-16T07:54:14;4.22;;;3.83;;
24961;SDS011;12992;50.884;13.668;2022-10-16T07:56:40;6.18;;;3.58;;
24961;SDS011;12992;50.884;13.668;2022-10-16T07:59:05;5.07;;;3.28;;
24961;SDS011;12992;50.884;13.668;2022-10-16T08:01:31;3.67;;;3.30;;
24961;SDS011;12992;50.884;13.668;2022-10-16T08:03:56;3.88;;;3.50;;
24961;SDS011;12992;50.884;13.668;2022-10-16T08:06:22;3.30;;;3.00;;
24961;SDS011;12992;50.884;13.668;2022-10-16T08:08:48;2.65;;;2.45;;
24961;SDS011;12992;50.884;13.668;2022-10-16T08:11:14;2.83;;;2.40;;
24961;SDS011;12992;50.884;13.668;2022-10-16T08:13:40;3.10;;;2.30;;
24961;SDS011;12992;50.884;13.668;2022-10-16T08:16:06;2.20;;;2.00;;
24961;SDS011;12992;50.884;13.668;2022-10-16T08:18:35;2.08;;;1.95;;
24961;SDS011;12992;50.884;13.668;2022-10-16T08:21:02;1.73;;;1.63;;
24961;SDS011;12992;50.884;13.668;2022-10-16T08:23:28;2.10;;;1.90;;
24961;SDS011;12992;50.884;13.668;2022-10-16T08:25:54;2.17;;;1.70;;
24961;SDS011;12992;50.884;13.668;2022-10-16T08:28:20;1.90;;;1.70;;
24961;SDS011;12992;50.884;13.668;2022-10-16T08:30:46;1.95;;;1.50;;
24961;SDS011;12992;50.884;13.668;2022-10-16T08:33:11;1.50;;;1.40;;
24961;SDS011;12992;50.884;13.668;2022-10-16T08:35:37;1.30;;;1.20;;
24961;SDS011;12992;50.884;13.668;2022-10-16T08:38:03;1.17;;;1.08;;
24961;SDS011;12992;50.884;13.668;2022-10-16T08:40:32;3.47;;;1.40;;
24961;SDS011;12992;50.884;13.668;2022-10-16T08:43:07;1.48;;;1.17;;
24961;SDS011;12992;50.884;13.668;2022-10-16T08:48:56;1.05;;;1.02;;
24961;SDS011;12992;50.884;13.668;2022-10-16T08:51:24;1.27;;;1.10;;
24961;SDS011;12992;50.884;13.668;2022-10-16T08:56:51;3.22;;;0.85;;
24961;SDS011;12992;50.884;13.668;2022-10-16T08:59:19;2.05;;;0.80;;
24961;SDS011;12992;50.884;13.668;2022-10-16T09:01:45;0.80;;;0.80;;
24961;SDS011;12992;50.884;13.668;2022-10-16T09:12:10;1.17;;;0.80;;
24961;SDS011;12992;50.884;13.668;2022-10-16T09:17:24;4.50;;;0.80;;
24961;SDS011;12992;50.884;13.668;2022-10-16T09:19:55;3.33;;;0.80;;
24961;SDS011;12992;50.884;13.668;2022-10-16T09:22:26;0.85;;;0.57;;
24961;SDS011;12992;50.884;13.668;2022-10-16T09:24:54;0.95;;;0.68;;
24961;SDS011;12992;50.884;13.668;2022-10-16T09:27:24;0.30;;;0.30;;
24961;SDS011;12992;50.884;13.668;2022-10-16T09:29:49;1.65;;;0.60;;
24961;SDS011;12992;50.884;13.668;2022-10-16T09:32:19;0.63;;;0.50;;
24961;SDS011;12992;50.884;13.668;2022-10-16T09:34:52;5.60;;;0.93;;
24961;SDS011;12992;50.884;13.668;2022-10-16T09:37:21;1.40;;;0.60;;
24961;SDS011;12992;50.884;13.668;2022-10-16T09:39:49;2.63;;;0.47;;
24961;SDS011;12992;50.884;13.668;2022-10-16T09:42:17;2.00;;;0.70;;
24961;SDS011;12992;50.884;13.668;2022-10-16T09:44:47;0.88;;;0.47;;
24961;SDS011;12992;50.884;13.668;2022-10-16T09:47:16;2.35;;;0.40;;
24961;SDS011;12992;50.884;13.668;2022-10-16T09:50:02;3.53;;;0.70;;
24961;SDS011;12992;50.884;13.668;2022-10-16T09:52:31;1.33;;;1.23;;
24961;SDS011;12992;50.884;13.668;2022-10-16T09:55:02;3.83;;;1.77;;
24961;SDS011;12992;50.884;13.668;2022-10-16T09:57:47;3.20;;;1.60;;
24961;SDS011;12992;50.884;13.668;2022-10-16T10:00:15;2.08;;;1.00;;
24961;SDS011;12992;50.884;13.668;2022-10-16T10:02:41;0.75;;;0.50;;
24961;SDS011;12992;50.884;13.668;2022-10-16T10:05:17;0.32;;;0.32;;
24961;SDS011;12992;50.884;13.668;2022-10-16T10:07:44;2.08;;;0.28;;
24961;SDS011;12992;50.884;13.668;2022-10-16T10:10:21;1.77;;;0.60;;
24961;SDS011;12992;50.884;13.668;2022-10-16T10:12:49;2.70;;;0.35;;
24961;SDS011;12992;50.884;13.668;2022-10-16T10:15:15;1.95;;;0.30;;
24961;SDS011;12992;50.884;13.668;2022-10-16T10:18:14;0.40;;;0.40;;
24961;SDS011;12992;50.884;13.668;2022-10-16T10:20:46;0.80;;;0.40;;
24961;SDS011;12992;50.884;13.668;2022-10-16T10:23:23;1.13;;;0.40;;
24961;SDS011;12992;50.884;13.668;2022-10-16T10:26:03;0.50;;;0.45;;
24961;SDS011;12992;50.884;13.668;2022-10-16T10:28:44;0.30;;;0.30;;
24961;SDS011;12992;50.884;13.668;2022-10-16T10:31:20;0.40;;;0.40;;
24961;SDS011;12992;50.884;13.668;2022-10-16T10:36:57;0.40;;;0.40;;
24961;SDS011;12992;50.884;13.668;2022-10-16T10:39:54;0.40;;;0.40;;
24961;SDS011;12992;50.884;13.668;2022-10-16T10:42:29;0.32;;;0.25;;
24961;SDS011;12992;50.884;13.668;2022-10-16T10:45:36;0.40;;;0.40;;
24961;SDS011;12992;50.884;13.668;2022-10-16T10:48:17;0.57;;;0.40;;
24961;SDS011;12992;50.884;13.668;2022-10-16T10:50:52;3.72;;;0.50;;
24961;SDS011;12992;50.884;13.668;2022-10-16T10:53:45;0.30;;;0.30;;
24961;SDS011;12992;50.884;13.668;2022-10-16T10:56:21;2.85;;;0.50;;
24961;SDS011;12992;50.884;13.668;2022-10-16T11:01:46;2.17;;;0.40;;
24961;SDS011;12992;50.884;13.668;2022-10-16T11:08:18;0.35;;;0.25;;
24961;SDS011;12992;50.884;13.668;2022-10-16T11:10:45;0.40;;;0.38;;
24961;SDS011;12992;50.884;13.668;2022-10-16T11:15:55;2.08;;;0.55;;
24961;SDS011;12992;50.884;13.668;2022-10-16T11:18:30;0.50;;;0.50;;
24961;SDS011;12992;50.884;13.668;2022-10-16T11:21:05;0.57;;;0.40;;
24961;SDS011;12992;50.884;13.668;2022-10-16T11:23:40;0.47;;;0.32;;
24961;SDS011;12992;50.884;13.668;2022-10-16T11:26:15;2.15;;;0.30;;
24961;SDS011;12992;50.884;13.668;2022-10-16T11:28:46;0.20;;;0.20;;
24961;SDS011;12992;50.884;13.668;2022-10-16T11:31:19;0.40;;;0.40;;
24961;SDS011;12992;50.884;13.668;2022-10-16T11:34:34;0.60;;;0.43;;
24961;SDS011;12992;50.884;13.668;2022-10-16T11:39:32;0.30;;;0.30;;
24961;SDS011;12992;50.884;13.668;2022-10-16T11:42:13;0.50;;;0.20;;
24961;SDS011;12992;50.884;13.668;2022-10-16T11:44:45;0.30;;;0.30;;
24961;SDS011;12992;50.884;13.668;2022-10-16T11:47:36;1.23;;;0.35;;
24961;SDS011;12992;50.884;13.668;2022-10-16T11:56:11;0.75;;;0.45;;
24961;SDS011;12992;50.884;13.668;2022-10-16T11:58:57;1.20;;;0.40;;
24961;SDS011;12992;50.884;13.668;2022-10-16T12:01:47;0.50;;;0.40;;
24961;SDS011;12992;50.884;13.668;2022-10-16T12:09:34;0.38;;;0.38;;
24961;SDS011;12992;50.884;13.668;2022-10-16T12:12:03;0.50;;;0.47;;
24961;SDS011;12992;50.884;13.668;2022-10-16T12:16:55;0.50;;;0.50;;
24961;SDS011;12992;50.884;13.668;2022-10-16T12:19:23;0.30;;;0.30;;
24961;SDS011;12992;50.884;13.668;2022-10-16T12:21:50;0.77;;;0.50;;
24961;SDS011;12992;50.884;13.668;2022-10-16T12:24:27;0.60;;;0.40;;
24961;SDS011;12992;50.884;13.668;2022-10-16T12:26:57;0.82;;;0.50;;
24961;SDS011;12992;50.884;13.668;2022-10-16T12:29:29;2.05;;;0.57;;
24961;SDS011;12992;50.884;13.668;2022-10-16T12:32:00;1.75;;;0.50;;
24961;SDS011;12992;50.884;13.668;2022-10-16T12:34:41;1.52;;;0.40;;
24961;SDS011;12992;50.884;13.668;2022-10-16T12:37:53;0.40;;;0.40;;
24961;SDS011;12992;50.884;13.668;2022-10-16T12:39:58;0.40;;;0.40;;
24961;SDS011;12992;50.884;13.668;2022-10-16T12:42:35;0.52;;;0.47;;
24961;SDS011;12992;50.884;13.668;2022-10-16T12:45:00;0.50;;;0.50;;
24961;SDS011;12992;50.884;13.668;2022-10-16T12:49:55;0.40;;;0.40;;
24961;SDS011;12992;50.884;13.668;2022-10-16T12:54:58;0.88;;;0.50;;
24961;SDS011;12992;50.884;13.668;2022-10-16T13:18:14;2.15;;;0.60;;
24961;SDS011;12992;50.884;13.668;2022-10-16T13:23:38;0.77;;;0.50;;
24961;SDS011;12992;50.884;13.668;2022-10-16T13:28:51;0.65;;;0.65;;
24961;SDS011;12992;50.884;13.668;2022-10-16T13:31:20;0.90;;;0.90;;
24961;SDS011;12992;50.884;13.668;2022-10-16T13:33:52;0.80;;;0.80;;
24961;SDS011;12992;50.884;13.668;2022-10-16T13:38:47;2.20;;;0.90;;
24961;SDS011;12992;50.884;13.668;2022-10-16T13:41:14;2.05;;;0.90;;
24961;SDS011;12992;50.884;13.668;2022-10-16T13:43:42;1.08;;;0.95;;
24961;SDS011;12992;50.884;13.668;2022-10-16T13:46:17;1.23;;;1.13;;
24961;SDS011;12992;50.884;13.668;2022-10-16T13:48:43;1.65;;;1.02;;
24961;SDS011;12992;50.884;13.668;2022-10-16T13:51:15;1.38;;;1.15;;
24961;SDS011;12992;50.884;13.668;2022-10-16T13:53:42;1.10;;;0.90;;
24961;SDS011;12992;50.884;13.668;2022-10-16T13:56:10;1.45;;;1.08;;
24961;SDS011;12992;50.884;13.668;2022-10-16T13:58:38;2.17;;;1.02;;
24961;SDS011;12992;50.884;13.668;2022-10-16T14:01:05;1.65;;;0.90;;
24961;SDS011;12992;50.884;13.668;2022-10-16T14:03:38;1.50;;;0.98;;
24961;SDS011;12992;50.884;13.668;2022-10-16T14:06:06;1.02;;;0.80;;
24961;SDS011;12992;50.884;13.668;2022-10-16T14:08:41;1.45;;;1.15;;
24961;SDS011;12992;50.884;13.668;2022-10-16T14:11:08;1.40;;;1.10;;
24961;SDS011;12992;50.884;13.668;2022-10-16T14:13:37;1.33;;;1.13;;
24961;SDS011;12992;50.884;13.668;2022-10-16T14:16:05;1.33;;;0.98;;
24961;SDS011;12992;50.884;13.668;2022-10-16T14:18:34;1.40;;;0.90;;
24961;SDS011;12992;50.884;13.668;2022-10-16T14:21:03;1.08;;;0.50;;
24961;SDS011;12992;50.884;13.668;2022-10-16T14:23:32;1.55;;;0.80;;
24961;SDS011;12992;50.884;13.668;2022-10-16T14:28:35;0.50;;;0.50;;
24961;SDS011;12992;50.884;13.668;2022-10-16T14:31:14;0.40;;;0.40;;
24961;SDS011;12992;50.884;13.668;2022-10-16T14:33:49;1.17;;;0.60;;
24961;SDS011;12992;50.884;13.668;2022-10-16T14:36:14;2.08;;;0.65;;
24961;SDS011;12992;50.884;13.668;2022-10-16T14:41:32;1.67;;;0.50;;
24961;SDS011;12992;50.884;13.668;2022-10-16T14:44:11;1.17;;;0.52;;
24961;SDS011;12992;50.884;13.668;2022-10-16T14:46:38;1.08;;;0.60;;
24961;SDS011;12992;50.884;13.668;2022-10-16T14:51:34;1.20;;;0.60;;
24961;SDS011;12992;50.884;13.668;2022-10-16T14:54:00;3.08;;;0.63;;
24961;SDS011;12992;50.884;13.668;2022-10-16T14:56:34;0.70;;;0.70;;
24961;SDS011;12992;50.884;13.668;2022-10-16T14:59:10;1.20;;;0.63;;
24961;SDS011;12992;50.884;13.668;2022-10-16T15:01:42;0.52;;;0.50;;
24961;SDS011;12992;50.884;13.668;2022-10-16T15:04:09;0.57;;;0.52;;
24961;SDS011;12992;50.884;13.668;2022-10-16T15:06:37;0.55;;;0.55;;
24961;SDS011;12992;50.884;13.668;2022-10-16T15:09:02;0.95;;;0.80;;
24961;SDS011;12992;50.884;13.668;2022-10-16T15:11:28;0.60;;;0.60;;
24961;SDS011;12992;50.884;13.668;2022-10-16T15:13:56;2.10;;;0.65;;
24961;SDS011;12992;50.884;13.668;2022-10-16T15:16:21;2.30;;;0.52;;
24961;SDS011;12992;50.884;13.668;2022-10-16T15:18:46;0.50;;;0.50;;
24961;SDS011;12992;50.884;13.668;2022-10-16T15:21:26;2.53;;;0.60;;
24961;SDS011;12992;50.884;13.668;2022-10-16T15:23:54;0.88;;;0.65;;
24961;SDS011;12992;50.884;13.668;2022-10-16T15:26:22;1.48;;;0.60;;
24961;SDS011;12992;50.884;13.668;2022-10-16T15:28:48;0.55;;;0.50;;
24961;SDS011;12992;50.884;13.668;2022-10-16T15:31:13;0.85;;;0.52;;
24961;SDS011;12992;50.884;13.668;2022-10-16T15:33:39;1.25;;;0.50;;
24961;SDS011;12992;50.884;13.668;2022-10-16T15:36:04;2.20;;;0.60;;
24961;SDS011;12992;50.884;13.668;2022-10-16T15:38:30;0.45;;;0.40;;
24961;SDS011;12992;50.884;13.668;2022-10-16T15:40:55;0.50;;;0.50;;
24961;SDS011;12992;50.884;13.668;2022-10-16T15:43:21;0.63;;;0.63;;
24961;SDS011;12992;50.884;13.668;2022-10-16T15:46:00;0.95;;;0.70;;
24961;SDS011;12992;50.884;13.668;2022-10-16T15:48:31;0.50;;;0.50;;
24961;SDS011;12992;50.884;13.668;2022-10-16T15:50:57;0.73;;;0.50;;
24961;SDS011;12992;50.884;13.668;2022-10-16T15:53:24;3.80;;;0.52;;
24961;SDS011;12992;50.884;13.668;2022-10-16T15:55:49;1.08;;;0.40;;
24961;SDS011;12992;50.884;13.668;2022-10-16T15:58:15;0.88;;;0.70;;
24961;SDS011;12992;50.884;13.668;2022-10-16T16:00:41;0.70;;;0.70;;
24961;SDS011;12992;50.884;13.668;2022-10-16T16:03:06;1.95;;;0.50;;
24961;SDS011;12992;50.884;13.668;2022-10-16T16:05:31;2.38;;;0.60;;
24961;SDS011;12992;50.884;13.668;2022-10-16T16:07:58;0.50;;;0.50;;
24961;SDS011;12992;50.884;13.668;2022-10-16T16:10:24;3.08;;;0.70;;
24961;SDS011;12992;50.884;13.668;2022-10-16T16:12:49;0.50;;;0.50;;
24961;SDS011;12992;50.884;13.668;2022-10-16T16:15:19;2.05;;;0.60;;
24961;SDS011;12992;50.884;13.668;2022-10-16T16:17:45;0.50;;;0.47;;
24961;SDS011;12992;50.884;13.668;2022-10-16T16:20:11;0.60;;;0.60;;
24961;SDS011;12992;50.884;13.668;2022-10-16T16:22:37;2.63;;;0.73;;
24961;SDS011;12992;50.884;13.668;2022-10-16T16:25:02;2.15;;;0.80;;